createdAt,value
2017-12-27T00:04:27.726Z,5.50
2017-12-27T00:07:00.903Z,5.60
2017-12-27T00:09:33.996Z,5.60
2017-12-27T00:12:07.229Z,5.60
2017-12-27T00:14:40.349Z,5.50
2017-12-27T00:17:13.563Z,5.50
2017-12-27T00:19:46.870Z,5.50
2017-12-27T00:22:19.984Z,5.40
2017-12-27T00:24:53.962Z,5.50
2017-12-27T00:27:27.181Z,5.40
2017-12-27T00:30:00.317Z,5.60
2017-12-27T00:32:27.336Z,5.60
2017-12-27T00:34:54.896Z,5.60
2017-12-27T00:37:22.429Z,5.60
2017-12-27T00:39:49.960Z,5.60
2017-12-27T00:42:17.476Z,5.60
2017-12-27T00:44:45.035Z,5.60
2017-12-27T00:47:12.557Z,5.60
2017-12-27T00:49:40.115Z,5.50
2017-12-27T00:52:07.674Z,5.50
2017-12-27T00:54:35.193Z,5.60
2017-12-27T00:57:03.384Z,5.60
2017-12-27T00:59:30.912Z,5.60
2017-12-27T01:01:58.894Z,5.70
2017-12-27T01:04:26.456Z,5.80
2017-12-27T01:06:53.975Z,5.80
2017-12-27T01:09:21.533Z,5.80
2017-12-27T01:11:49.813Z,5.80
2017-12-27T01:14:17.369Z,5.90
2017-12-27T01:16:45.648Z,6.00
2017-12-27T01:19:13.176Z,6.00
2017-12-27T01:21:40.754Z,5.70
2017-12-27T01:24:08.279Z,5.70
2017-12-27T01:26:35.828Z,5.70
2017-12-27T01:29:03.349Z,5.70
2017-12-27T01:31:31.685Z,5.70
2017-12-27T01:33:59.227Z,5.70
2017-12-27T01:36:26.741Z,5.70
2017-12-27T01:38:54.301Z,5.80
2017-12-27T01:41:21.850Z,5.90
2017-12-27T01:43:49.365Z,6.00
2017-12-27T01:46:16.931Z,6.00
2017-12-27T01:48:44.487Z,6.00
2017-12-27T01:51:11.998Z,6.00
2017-12-27T01:53:40.277Z,6.10
2017-12-27T01:56:07.832Z,6.00
2017-12-27T01:58:36.149Z,6.00
2017-12-27T02:01:03.748Z,6.00
2017-12-27T02:03:31.315Z,6.00
2017-12-27T02:05:58.930Z,6.00
2017-12-27T02:08:26.497Z,6.10
2017-12-27T02:10:54.021Z,6.10
2017-12-27T02:13:21.577Z,6.10
2017-12-27T02:15:49.897Z,6.10
2017-12-27T02:18:17.456Z,6.10
2017-12-27T02:20:44.986Z,6.20
2017-12-27T02:23:12.550Z,6.20
2017-12-27T02:25:40.102Z,6.30
2017-12-27T02:28:08.380Z,6.30
2017-12-27T02:30:35.965Z,6.20
2017-12-27T02:33:03.532Z,6.20
2017-12-27T02:35:31.107Z,6.20
2017-12-27T02:37:58.617Z,6.30
2017-12-27T02:40:26.942Z,6.40
2017-12-27T02:42:54.506Z,6.40
2017-12-27T02:45:22.050Z,6.50
2017-12-27T02:47:49.616Z,6.50
2017-12-27T02:50:17.196Z,6.40
2017-12-27T02:52:44.748Z,6.40
2017-12-27T02:55:12.365Z,6.50
2017-12-27T02:57:39.880Z,6.50
2017-12-27T03:00:07.435Z,6.40
2017-12-27T03:02:35.371Z,6.40
2017-12-27T03:05:02.889Z,6.20
2017-12-27T03:07:30.448Z,6.30
2017-12-27T03:09:58.019Z,6.30
2017-12-27T03:12:26.333Z,6.50
2017-12-27T03:14:53.880Z,6.50
2017-12-27T03:17:21.437Z,6.30
2017-12-27T03:19:48.968Z,6.30
2017-12-27T03:22:16.865Z,6.30
2017-12-27T03:24:44.425Z,6.30
2017-12-27T03:27:11.941Z,6.40
2017-12-27T03:29:39.504Z,6.40
2017-12-27T03:32:07.786Z,6.40
2017-12-27T03:34:35.345Z,6.50
2017-12-27T03:37:03.631Z,6.50
2017-12-27T03:39:31.181Z,6.50
2017-12-27T03:41:59.472Z,6.50
2017-12-27T03:44:27.041Z,6.50
2017-12-27T03:46:54.565Z,6.40
2017-12-27T03:49:22.082Z,6.50
2017-12-27T03:51:49.643Z,6.40
2017-12-27T03:54:17.181Z,6.50
2017-12-27T03:56:44.733Z,6.50
2017-12-27T03:59:12.290Z,6.60
2017-12-27T04:01:39.869Z,6.60
2017-12-27T04:04:07.415Z,6.50
2017-12-27T04:06:34.988Z,6.60
2017-12-27T04:09:02.508Z,6.50
2017-12-27T04:11:30.840Z,6.50
2017-12-27T04:13:58.361Z,6.50
2017-12-27T04:16:26.672Z,6.50
2017-12-27T04:18:54.183Z,6.50
2017-12-27T04:21:22.503Z,6.50
2017-12-27T04:23:50.073Z,6.50
2017-12-27T04:26:17.596Z,6.50
2017-12-27T04:28:45.154Z,6.50
2017-12-27T04:31:12.661Z,6.50
2017-12-27T04:33:40.541Z,6.50
2017-12-27T04:38:50.433Z,6.50
2017-12-27T04:41:18.757Z,6.60
2017-12-27T04:43:46.306Z,6.60
2017-12-27T04:46:13.860Z,6.60
2017-12-27T04:48:41.377Z,6.60
2017-12-27T04:51:08.929Z,6.60
2017-12-27T04:53:36.467Z,6.50
2017-12-27T04:56:03.984Z,6.60
2017-12-27T04:58:31.525Z,6.70
2017-12-27T05:00:59.041Z,6.70
2017-12-27T05:03:26.581Z,6.70
2017-12-27T05:05:54.391Z,6.70
2017-12-27T05:08:21.906Z,6.70
2017-12-27T05:10:49.458Z,6.60
2017-12-27T05:13:17.010Z,6.60
2017-12-27T05:15:44.535Z,6.60
2017-12-27T05:18:12.094Z,6.70
2017-12-27T05:20:39.609Z,6.90
2017-12-27T05:23:07.157Z,6.90
2017-12-27T05:25:34.672Z,7.00
2017-12-27T05:28:02.220Z,7.10
2017-12-27T05:30:29.740Z,7.20
2017-12-27T05:32:57.300Z,7.30
2017-12-27T05:35:24.833Z,7.40
2017-12-27T05:37:52.380Z,7.50
2017-12-27T05:40:19.900Z,7.60
2017-12-27T05:42:47.442Z,7.60
2017-12-27T05:45:14.973Z,7.60
2017-12-27T05:47:42.527Z,7.70
2017-12-27T05:50:10.063Z,7.70
2017-12-27T05:52:38.359Z,7.70
2017-12-27T05:55:05.916Z,7.70
2017-12-27T05:57:34.225Z,7.70
2017-12-27T06:00:01.741Z,7.70
2017-12-27T06:02:30.060Z,7.80
2017-12-27T06:04:57.576Z,7.80
2017-12-27T06:07:25.899Z,7.90
2017-12-27T06:09:53.432Z,7.90
2017-12-27T06:12:20.988Z,7.90
2017-12-27T06:14:48.512Z,7.90
2017-12-27T06:17:16.062Z,7.90
2017-12-27T06:19:43.609Z,7.90
2017-12-27T06:22:11.138Z,7.90
2017-12-27T06:24:38.692Z,8.00
2017-12-27T06:27:06.205Z,8.10
2017-12-27T06:29:33.750Z,8.10
2017-12-27T06:32:01.270Z,8.10
2017-12-27T06:34:28.821Z,8.10
2017-12-27T06:36:56.343Z,8.10
2017-12-27T06:39:23.894Z,8.10
2017-12-27T06:41:51.414Z,8.00
2017-12-27T06:44:19.001Z,8.00
2017-12-27T06:46:46.529Z,8.00
2017-12-27T06:49:14.091Z,8.00
2017-12-27T06:51:41.620Z,8.10
2017-12-27T06:54:09.189Z,8.10
2017-12-27T06:56:37.511Z,8.20
2017-12-27T06:59:05.026Z,8.20
2017-12-27T07:01:33.342Z,8.40
2017-12-27T07:04:00.876Z,8.30
2017-12-27T07:06:28.441Z,8.40
2017-12-27T07:08:55.967Z,8.30
2017-12-27T07:11:23.711Z,8.30
2017-12-27T07:13:52.913Z,8.30
2017-12-27T07:16:20.472Z,8.30
2017-12-27T07:18:48.021Z,8.40
2017-12-27T07:21:15.541Z,8.40
2017-12-27T07:23:43.222Z,8.40
2017-12-27T07:26:10.749Z,8.40
2017-12-27T07:28:38.371Z,8.40
2017-12-27T07:31:05.941Z,8.50
2017-12-27T07:33:33.476Z,8.30
2017-12-27T07:36:01.039Z,8.20
2017-12-27T07:38:28.571Z,8.20
2017-12-27T07:40:56.154Z,8.10
2017-12-27T07:43:23.774Z,8.00
2017-12-27T07:45:51.379Z,7.90
2017-12-27T07:48:18.945Z,7.90
2017-12-27T07:50:46.479Z,7.90
2017-12-27T07:53:14.196Z,7.80
2017-12-27T07:55:42.096Z,7.80
2017-12-27T07:58:09.618Z,7.80
2017-12-27T08:00:37.137Z,7.80
2017-12-27T08:03:04.708Z,7.80
2017-12-27T08:05:32.253Z,7.70
2017-12-27T08:07:59.811Z,7.80
2017-12-27T08:10:27.372Z,7.70
2017-12-27T08:12:55.221Z,7.70
2017-12-27T08:15:22.773Z,7.70
2017-12-27T08:17:50.329Z,7.70
2017-12-27T08:20:17.885Z,7.70
2017-12-27T08:22:46.163Z,7.60
2017-12-27T08:25:13.694Z,7.60
2017-12-27T08:27:41.290Z,7.60
2017-12-27T08:30:08.862Z,7.80
2017-12-27T08:32:36.647Z,7.80
2017-12-27T08:35:04.170Z,7.90
2017-12-27T08:37:31.734Z,7.90
2017-12-27T08:39:59.289Z,8.00
2017-12-27T08:42:26.926Z,8.10
2017-12-27T08:44:54.516Z,8.10
2017-12-27T08:47:22.069Z,8.10
2017-12-27T08:49:49.640Z,8.10
2017-12-27T08:52:17.211Z,8.20
2017-12-27T08:54:44.733Z,8.20
2017-12-27T08:57:13.057Z,8.30
2017-12-27T08:59:40.594Z,8.30
2017-12-27T09:02:08.156Z,8.30
2017-12-27T09:04:35.742Z,8.30
2017-12-27T09:07:03.311Z,8.40
2017-12-27T09:09:30.861Z,8.30
2017-12-27T09:11:58.430Z,8.30
2017-12-27T09:14:26.779Z,8.30
2017-12-27T09:16:54.491Z,8.30
2017-12-27T09:19:22.049Z,8.30
2017-12-27T09:21:49.566Z,8.30
2017-12-27T09:24:17.114Z,8.20
2017-12-27T09:26:44.682Z,8.30
2017-12-27T09:29:12.301Z,8.30
2017-12-27T09:31:39.861Z,8.30
2017-12-27T09:34:07.388Z,8.40
2017-12-27T09:36:34.981Z,8.30
2017-12-27T09:39:02.540Z,8.30
2017-12-27T09:41:30.062Z,8.30
2017-12-27T09:43:57.635Z,8.40
2017-12-27T09:46:25.158Z,8.40
2017-12-27T09:48:52.686Z,8.50
2017-12-27T09:51:20.258Z,8.60
2017-12-27T09:53:48.550Z,8.60
2017-12-27T09:56:16.153Z,8.60
2017-12-27T09:58:43.706Z,8.60
2017-12-27T10:01:11.234Z,8.60
2017-12-27T10:03:39.200Z,8.60
2017-12-27T10:06:06.769Z,8.60
2017-12-27T10:08:34.349Z,8.70
2017-12-27T10:11:02.390Z,8.70
2017-12-27T10:13:30.024Z,8.70
2017-12-27T10:15:57.577Z,8.70
2017-12-27T10:18:25.112Z,8.70
2017-12-27T10:20:52.727Z,8.70
2017-12-27T10:23:20.474Z,8.70
2017-12-27T10:25:48.034Z,8.60
2017-12-27T10:28:16.319Z,8.90
2017-12-27T10:30:43.879Z,8.80
2017-12-27T10:33:12.197Z,8.90
2017-12-27T10:35:39.776Z,8.90
2017-12-27T10:38:07.350Z,8.90
2017-12-27T10:40:34.886Z,8.90
2017-12-27T10:43:02.670Z,8.90
2017-12-27T10:45:30.978Z,8.90
2017-12-27T10:47:58.856Z,8.90
2017-12-27T10:50:26.385Z,8.90
2017-12-27T10:52:53.994Z,8.90
2017-12-27T10:55:21.557Z,8.90
2017-12-27T10:57:49.117Z,8.80
2017-12-27T11:00:16.692Z,8.80
2017-12-27T11:02:44.282Z,8.80
2017-12-27T11:05:11.806Z,8.80
2017-12-27T11:07:39.366Z,8.80
2017-12-27T11:10:06.910Z,8.80
2017-12-27T11:12:34.477Z,8.80
2017-12-27T11:15:02.026Z,8.90
2017-12-27T11:17:29.572Z,8.80
2017-12-27T11:19:57.127Z,8.80
2017-12-27T11:22:24.644Z,8.80
2017-12-27T11:24:52.198Z,8.90
2017-12-27T11:27:19.713Z,8.90
2017-12-27T11:29:47.276Z,8.90
2017-12-27T11:32:14.877Z,8.90
2017-12-27T11:34:42.452Z,8.90
2017-12-27T11:37:10.006Z,8.90
2017-12-27T11:39:37.565Z,8.90
2017-12-27T11:42:05.082Z,9.00
2017-12-27T11:44:32.631Z,9.10
2017-12-27T11:47:00.252Z,9.10
2017-12-27T11:49:28.557Z,9.20
2017-12-27T11:51:56.188Z,9.20
2017-12-27T11:54:23.716Z,9.20
2017-12-27T11:56:51.275Z,9.20
2017-12-27T11:59:18.829Z,9.20
2017-12-27T12:01:46.397Z,9.20
2017-12-27T12:04:13.976Z,9.20
2017-12-27T12:06:41.510Z,9.20
2017-12-27T12:09:09.043Z,9.20
2017-12-27T12:11:36.922Z,9.30
2017-12-27T12:14:05.339Z,9.30
2017-12-27T12:16:33.654Z,9.30
2017-12-27T12:19:01.285Z,9.20
2017-12-27T12:21:28.801Z,9.20
2017-12-27T12:23:56.360Z,9.20
2017-12-27T12:26:24.009Z,9.30
2017-12-27T12:28:51.558Z,9.30
2017-12-27T12:31:19.492Z,9.30
2017-12-27T12:33:47.027Z,9.30
2017-12-27T12:36:14.604Z,9.30
2017-12-27T12:38:42.133Z,9.30
2017-12-27T12:41:09.649Z,9.30
2017-12-27T12:43:38.337Z,9.20
2017-12-27T12:46:06.649Z,9.30
2017-12-27T12:48:34.173Z,9.30
2017-12-27T12:51:01.727Z,9.30
2017-12-27T12:53:29.241Z,9.30
2017-12-27T12:55:56.799Z,9.30
2017-12-27T12:58:24.359Z,9.30
2017-12-27T13:00:51.940Z,9.30
2017-12-27T13:03:19.476Z,9.30
2017-12-27T13:05:47.259Z,9.30
2017-12-27T13:08:14.813Z,9.30
2017-12-27T13:10:42.356Z,9.30
2017-12-27T13:13:11.327Z,9.30
2017-12-27T13:15:38.883Z,9.30
2017-12-27T13:18:07.216Z,9.20
2017-12-27T13:20:35.047Z,9.20
2017-12-27T13:23:02.580Z,9.20
2017-12-27T13:25:30.154Z,9.20
2017-12-27T13:27:57.682Z,9.10
2017-12-27T13:30:26.049Z,9.10
2017-12-27T13:32:53.729Z,9.10
2017-12-27T13:35:21.286Z,9.00
2017-12-27T13:37:49.613Z,8.90
2017-12-27T13:40:17.182Z,8.90
2017-12-27T13:42:44.711Z,8.90
2017-12-27T13:45:12.913Z,8.90
2017-12-27T13:47:41.328Z,8.90
2017-12-27T13:50:08.891Z,8.80
2017-12-27T13:52:36.452Z,8.90
2017-12-27T13:55:04.039Z,8.80
2017-12-27T13:57:32.337Z,7.40
2017-12-27T13:59:59.896Z,8.70
2017-12-27T14:02:27.458Z,8.70
2017-12-27T14:04:54.980Z,8.60
2017-12-27T14:07:22.543Z,8.60
2017-12-27T14:09:50.111Z,8.70
2017-12-27T14:12:17.715Z,8.80
2017-12-27T14:14:45.266Z,8.70
2017-12-27T14:17:12.943Z,8.70
2017-12-27T14:19:40.464Z,8.80
2017-12-27T14:22:08.032Z,8.80
2017-12-27T14:24:35.592Z,8.80
2017-12-27T14:27:03.155Z,8.90
2017-12-27T14:29:30.731Z,8.90
2017-12-27T14:31:58.289Z,8.90
2017-12-27T14:34:26.030Z,8.80
2017-12-27T14:36:53.623Z,8.90
2017-12-27T14:39:21.145Z,8.90
2017-12-27T14:41:48.699Z,8.80
2017-12-27T14:44:16.274Z,8.80
2017-12-27T14:46:43.866Z,8.90
2017-12-27T14:49:11.506Z,8.90
2017-12-27T14:51:39.036Z,8.90
2017-12-27T14:54:06.906Z,8.90
2017-12-27T14:56:34.532Z,8.80
2017-12-27T14:59:02.106Z,8.90
2017-12-27T15:01:29.660Z,8.90
2017-12-27T15:03:57.217Z,8.80
2017-12-27T15:06:24.749Z,8.80
2017-12-27T15:08:52.388Z,8.80
2017-12-27T15:11:19.917Z,8.80
2017-12-27T15:13:47.482Z,8.80
2017-12-27T15:16:15.036Z,8.80
2017-12-27T15:18:42.652Z,8.80
2017-12-27T15:21:10.205Z,8.80
2017-12-27T15:23:37.767Z,8.80
2017-12-27T15:26:05.909Z,8.80
2017-12-27T15:28:33.491Z,8.80
2017-12-27T15:31:01.089Z,8.80
2017-12-27T15:33:28.668Z,8.80
2017-12-27T15:35:56.275Z,8.80
2017-12-27T15:38:23.820Z,8.80
2017-12-27T15:40:51.342Z,8.90
2017-12-27T15:43:18.915Z,8.80
2017-12-27T15:45:47.324Z,8.80
2017-12-27T15:48:14.893Z,8.80
2017-12-27T15:50:42.473Z,8.80
2017-12-27T15:53:10.087Z,8.80
2017-12-27T15:55:37.617Z,8.70
2017-12-27T15:58:05.181Z,8.80
2017-12-27T16:00:33.512Z,8.70
2017-12-27T16:03:01.033Z,8.70
2017-12-27T16:05:28.601Z,8.70
2017-12-27T16:07:56.176Z,8.60
2017-12-27T16:10:23.891Z,8.60
2017-12-27T16:12:51.451Z,8.60
2017-12-27T16:15:19.014Z,8.60
2017-12-27T16:17:46.622Z,8.70
2017-12-27T16:20:14.196Z,8.60
2017-12-27T16:22:41.748Z,8.50
2017-12-27T16:25:09.367Z,8.50
2017-12-27T16:27:37.698Z,8.50
2017-12-27T16:30:05.265Z,8.50
2017-12-27T16:32:32.850Z,8.50
2017-12-27T16:35:00.460Z,8.50
2017-12-27T16:37:28.009Z,8.50
2017-12-27T16:39:55.760Z,8.50
2017-12-27T16:42:23.373Z,8.50
2017-12-27T16:44:50.902Z,8.50
2017-12-27T16:47:18.470Z,8.50
2017-12-27T16:49:46.007Z,8.50
2017-12-27T16:52:13.552Z,8.50
2017-12-27T16:54:41.897Z,8.50
2017-12-27T16:57:09.426Z,8.50
2017-12-27T16:59:36.995Z,8.50
2017-12-27T17:02:04.564Z,8.60
2017-12-27T17:04:32.141Z,8.70
2017-12-27T17:06:59.720Z,8.60
2017-12-27T17:09:27.289Z,8.70
2017-12-27T17:11:55.627Z,8.70
2017-12-27T17:14:23.289Z,8.70
2017-12-27T17:16:50.860Z,8.70
2017-12-27T17:19:18.458Z,8.80
2017-12-27T17:21:46.027Z,8.70
2017-12-27T17:24:13.593Z,8.70
2017-12-27T17:26:42.019Z,8.70
2017-12-27T17:29:10.308Z,8.60
2017-12-27T17:31:37.874Z,8.60
2017-12-27T17:34:05.487Z,8.60
2017-12-27T17:36:33.047Z,8.60
2017-12-27T17:39:00.614Z,8.60
2017-12-27T17:41:28.203Z,8.60
2017-12-27T17:43:55.827Z,8.60
2017-12-27T17:46:23.398Z,8.60
2017-12-27T17:48:51.021Z,8.60
2017-12-27T17:51:18.616Z,8.70
2017-12-27T17:53:46.534Z,8.70
2017-12-27T17:56:14.114Z,8.70
2017-12-27T17:58:41.769Z,8.70
2017-12-27T18:01:09.300Z,8.70
2017-12-27T18:03:36.861Z,8.70
2017-12-27T18:06:04.489Z,8.70
2017-12-27T18:08:32.050Z,8.60
2017-12-27T18:10:59.618Z,8.70
2017-12-27T18:13:27.224Z,8.80
2017-12-27T18:15:54.796Z,8.80
2017-12-27T18:18:22.406Z,8.80
2017-12-27T18:20:49.981Z,8.80
2017-12-27T18:23:17.586Z,8.80
2017-12-27T18:25:45.240Z,8.80
2017-12-27T18:28:12.849Z,8.70
2017-12-27T18:30:40.452Z,8.60
2017-12-27T18:33:08.844Z,8.70
2017-12-27T18:35:36.421Z,8.60
2017-12-27T18:38:04.000Z,8.60
2017-12-27T18:40:31.598Z,8.60
2017-12-27T18:42:59.203Z,8.60
2017-12-27T18:45:26.789Z,8.70
2017-12-27T18:47:54.413Z,8.60
2017-12-27T18:50:22.039Z,8.60
2017-12-27T18:52:49.608Z,8.70
2017-12-27T18:55:17.180Z,8.70
2017-12-27T18:57:44.819Z,8.80
2017-12-27T19:00:12.436Z,8.70
2017-12-27T19:02:40.052Z,8.70
2017-12-27T19:05:07.701Z,8.80
2017-12-27T19:07:35.285Z,8.80
2017-12-27T19:10:02.955Z,8.80
2017-12-27T19:12:30.593Z,8.80
2017-12-27T19:14:58.942Z,8.80
2017-12-27T19:17:26.557Z,8.70
2017-12-27T19:19:54.174Z,8.80
2017-12-27T19:22:21.759Z,8.80
2017-12-27T19:24:49.338Z,8.70
2017-12-27T19:27:16.955Z,8.80
2017-12-27T19:29:44.576Z,8.80
2017-12-27T19:32:12.199Z,8.80
2017-12-27T19:34:39.783Z,8.80
2017-12-27T19:37:07.421Z,8.70
2017-12-27T19:39:35.005Z,8.80
2017-12-27T19:42:02.627Z,8.70
2017-12-27T19:44:30.626Z,8.80
2017-12-27T19:46:59.008Z,8.80
2017-12-27T19:49:27.397Z,8.70
2017-12-27T19:51:54.991Z,8.70
2017-12-27T19:54:22.551Z,8.70
2017-12-27T19:56:50.399Z,8.80
2017-12-27T19:59:18.003Z,8.80
2017-12-27T20:01:45.608Z,8.80
2017-12-27T20:04:13.183Z,8.80
2017-12-27T20:06:40.757Z,8.80
2017-12-27T20:09:08.403Z,8.80
2017-12-27T20:11:36.004Z,8.80
2017-12-27T20:14:03.589Z,8.70
2017-12-27T20:16:31.222Z,8.80
2017-12-27T20:18:58.782Z,8.80
2017-12-27T20:21:26.403Z,8.80
2017-12-27T20:23:54.012Z,8.80
2017-12-27T20:26:21.629Z,8.70
2017-12-27T20:28:49.210Z,8.70
2017-12-27T20:31:16.897Z,8.70
2017-12-27T20:33:44.452Z,8.70
2017-12-27T20:36:12.062Z,8.70
2017-12-27T20:38:39.628Z,8.70
2017-12-27T20:41:07.249Z,8.60
2017-12-27T20:43:34.867Z,8.60
2017-12-27T20:46:02.433Z,8.70
2017-12-27T20:48:30.061Z,8.70
2017-12-27T20:50:57.685Z,8.60
2017-12-27T20:53:25.294Z,8.60
2017-12-27T20:55:52.934Z,8.50
2017-12-27T20:58:20.556Z,8.50
2017-12-27T21:00:48.138Z,8.60
2017-12-27T21:03:15.758Z,8.50
2017-12-27T21:05:43.360Z,8.50
2017-12-27T21:08:10.985Z,8.50
2017-12-27T21:10:38.726Z,8.50
2017-12-27T21:13:06.292Z,8.50
2017-12-27T21:15:33.857Z,8.50
2017-12-27T21:18:01.470Z,8.40
2017-12-27T21:20:29.064Z,8.50
2017-12-27T21:22:56.676Z,8.40
2017-12-27T21:25:24.305Z,8.40
2017-12-27T21:27:51.953Z,8.50
2017-12-27T21:30:19.542Z,8.40
2017-12-27T21:32:47.126Z,8.40
2017-12-27T21:35:14.739Z,8.30
2017-12-27T21:37:42.306Z,8.40
2017-12-27T21:40:09.912Z,8.30
2017-12-27T21:42:37.520Z,8.40
2017-12-27T21:45:05.132Z,8.40
2017-12-27T21:47:38.291Z,8.40
2017-12-27T21:50:05.890Z,8.30
2017-12-27T21:52:33.521Z,8.30
2017-12-27T21:55:01.111Z,8.30
2017-12-27T21:57:28.667Z,8.30
2017-12-27T22:00:02.651Z,8.10
2017-12-27T22:02:30.240Z,8.10
2017-12-27T22:04:57.836Z,8.10
2017-12-27T22:07:25.445Z,8.10
2017-12-27T22:09:53.083Z,8.00
2017-12-27T22:12:20.688Z,8.10
2017-12-27T22:14:48.293Z,8.10
2017-12-27T22:17:15.898Z,8.00
2017-12-27T22:19:43.521Z,8.10
2017-12-27T22:22:11.166Z,8.20
2017-12-27T22:24:38.727Z,8.20
2017-12-27T22:27:06.333Z,8.20
2017-12-27T22:29:33.923Z,8.00
2017-12-27T22:32:02.272Z,7.60
2017-12-27T22:34:29.855Z,7.60
2017-12-27T22:36:57.484Z,7.50
2017-12-27T22:39:25.060Z,7.60
2017-12-27T22:41:52.668Z,7.60
2017-12-27T22:44:20.254Z,7.60
2017-12-27T22:46:47.854Z,7.60
2017-12-27T22:49:15.426Z,7.50
2017-12-27T22:51:43.018Z,7.50
2017-12-27T22:54:10.619Z,7.50
2017-12-27T22:56:38.187Z,7.50
2017-12-27T22:59:05.811Z,7.50
2017-12-27T23:01:33.415Z,7.50
2017-12-27T23:04:00.984Z,7.60
2017-12-27T23:06:28.580Z,7.60
2017-12-27T23:08:56.188Z,7.60
2017-12-27T23:11:23.769Z,7.60
2017-12-27T23:13:51.335Z,7.60
2017-12-27T23:16:18.964Z,7.60
2017-12-27T23:18:46.550Z,7.70
2017-12-27T23:21:14.157Z,7.70
2017-12-27T23:23:41.749Z,7.70
2017-12-27T23:26:09.332Z,7.60
2017-12-27T23:28:37.202Z,7.70
2017-12-27T23:31:04.811Z,7.70
2017-12-27T23:33:32.378Z,7.70
2017-12-27T23:35:59.991Z,7.70
2017-12-27T23:38:27.578Z,7.70
2017-12-27T23:40:55.176Z,7.80
2017-12-27T23:43:22.730Z,7.70
2017-12-27T23:45:50.335Z,7.70
2017-12-27T23:48:17.890Z,7.80
2017-12-27T23:50:45.479Z,7.80
2017-12-27T23:53:13.062Z,7.80
2017-12-27T23:55:40.665Z,7.80
2017-12-27T23:58:08.991Z,8.00
